Time;durP1;ratioP1;P1;durP2;ratioP2;P2;SDS_P1;SDS_P2;PMS_P1;PMS_P2;Temp;Humidity;BMP_temperature;BMP_pressure;BME280_temperature;BME280_humidity;BME280_pressure;Samples;Min_cycle;Max_cycle;Signal;HPM_P1;HPM_P2
2021/03/19 00:02:23;;;;;;;;;19.75;16.50;;;;;12.08;44.96;98377.94;4874833;28;102779;-83
2021/03/19 00:04:50;;;;;;;;;22.50;19.25;;;;;12.07;44.31;98367.28;4860524;28;104069;-84
2021/03/19 00:07:18;;;;;;;;;22.75;19.00;;;;;12.06;44.54;98371.91;4857406;28;102947;-84
2021/03/19 00:09:44;;;;;;;;;23.00;18.00;;;;;12.06;44.55;98376.50;4854748;28;103346;-84
2021/03/19 00:12:11;;;;;;;;;27.25;19.25;;;;;12.04;44.48;98367.72;4857585;28;102216;-84
2021/03/19 00:14:38;;;;;;;;;22.25;18.50;;;;;12.02;44.38;98365.22;4674831;28;106750;-84
2021/03/19 00:17:05;;;;;;;;;19.75;17.00;;;;;12.02;44.97;98367.13;4864026;28;104096;-84
2021/03/19 00:19:31;;;;;;;;;24.00;21.50;;;;;11.99;44.22;98368.38;4855977;28;103171;-84
2021/03/19 00:21:58;;;;;;;;;20.25;18.00;;;;;11.99;44.73;98371.09;4861589;28;103619;-84
2021/03/19 00:24:25;;;;;;;;;25.50;21.75;;;;;11.99;44.47;98364.84;4852707;28;103881;-84
2021/03/19 00:26:52;;;;;;;;;25.75;20.75;;;;;11.97;44.48;98364.22;4857032;28;102557;-83
2021/03/19 00:29:19;;;;;;;;;26.00;21.25;;;;;11.96;44.92;98365.28;4853222;28;102837;-84
2021/03/19 00:31:46;;;;;;;;;19.50;17.50;;;;;11.95;44.33;98361.72;4850034;28;105249;-84
2021/03/19 00:34:14;;;;;;;;;20.75;17.00;;;;;11.94;44.53;98356.53;4860670;28;108009;-84
2021/03/19 00:36:40;;;;;;;;;19.25;18.50;;;;;11.94;44.34;98365.47;4803398;28;102394;-83
2021/03/19 00:39:07;;;;;;;;;25.00;22.50;;;;;11.92;44.25;98355.91;4779124;28;102843;-84
2021/03/19 00:41:34;;;;;;;;;21.25;19.50;;;;;11.90;44.16;98356.13;4845487;28;102831;-83
2021/03/19 00:44:02;;;;;;;;;24.00;19.50;;;;;11.89;44.62;98349.03;4835291;28;104269;-84
2021/03/19 00:46:29;;;;;;;;;20.50;19.00;;;;;11.89;44.39;98356.31;4824583;28;103670;-84
2021/03/19 00:48:57;;;;;;;;;22.75;17.50;;;;;11.88;44.49;98351.97;4837723;28;106208;-84
2021/03/19 00:51:24;;;;;;;;;22.00;17.00;;;;;11.86;44.46;98349.47;4850732;28;102510;-83
2021/03/19 00:53:50;;;;;;;;;27.50;21.00;;;;;11.86;44.81;98344.06;4833623;28;104055;-83
2021/03/19 00:56:17;;;;;;;;;23.75;20.75;;;;;11.83;44.45;98349.91;4832959;28;102480;-93
2021/03/19 00:58:44;;;;;;;;;20.75;20.50;;;;;11.84;44.64;98350.75;4860093;28;103717;-93
2021/03/19 01:01:11;;;;;;;;;23.00;20.00;;;;;11.83;44.71;98343.66;4841058;28;102627;-93
2021/03/19 01:03:38;;;;;;;;;22.00;18.75;;;;;11.82;44.18;98342.84;4850830;28;104105;-93
2021/03/19 01:06:05;;;;;;;;;18.50;15.75;;;;;11.81;44.60;98348.44;4761162;28;103970;-93
2021/03/19 01:08:32;;;;;;;;;20.00;17.50;;;;;11.80;44.17;98346.78;4806103;28;104107;-93
2021/03/19 01:10:59;;;;;;;;;22.00;18.50;;;;;11.80;44.40;98346.78;4806315;29;104037;-93
2021/03/19 01:13:26;;;;;;;;;20.75;19.50;;;;;11.79;44.09;98345.16;4800254;28;104096;-92
2021/03/19 01:15:53;;;;;;;;;21.00;19.75;;;;;11.77;44.51;98345.34;4817945;28;105073;-92
2021/03/19 01:18:22;;;;;;;;;20.50;16.75;;;;;11.77;44.21;98339.94;4788218;29;102573;-93
2021/03/19 01:20:57;;;;;;;;;23.00;19.75;;;;;11.76;44.32;98346.38;4805677;28;104047;-93
2021/03/19 01:23:25;;;;;;;;;24.75;21.00;;;;;11.75;44.00;98341.22;4810454;28;104010;-92
2021/03/19 01:25:55;;;;;;;;;29.00;20.00;;;;;11.75;44.15;98331.22;4823957;28;103318;-84
2021/03/19 01:28:22;;;;;;;;;26.75;23.00;;;;;11.75;44.59;98335.78;4821239;28;102447;-84
2021/03/19 01:30:53;;;;;;;;;21.50;18.50;;;;;11.72;44.25;98333.47;4723312;28;102260;-83
2021/03/19 01:33:21;;;;;;;;;28.25;22.00;;;;;11.71;44.29;98342.66;4842675;28;103954;-84
2021/03/19 01:35:47;;;;;;;;;22.25;16.75;;;;;11.71;44.28;98345.34;4863973;28;103967;-83
2021/03/19 01:38:14;;;;;;;;;24.00;20.75;;;;;11.69;44.07;98328.47;4840174;28;103153;-84
2021/03/19 01:40:43;;;;;;;;;22.00;18.50;;;;;11.69;44.23;98325.78;4765706;28;102519;-83
2021/03/19 01:43:45;;;;;;;;;27.25;21.00;;;;;11.69;44.22;98333.91;4694645;28;104000;-83
2021/03/19 01:46:49;;;;;;;;;23.75;20.75;;;;;11.67;43.89;98327.84;4677344;28;103803;-83
2021/03/19 01:49:54;;;;;;;;;24.25;19.25;;;;;11.66;44.32;98332.47;4854764;28;103020;-84
2021/03/19 01:52:58;;;;;;;;;21.00;19.75;;;;;11.64;44.54;98343.50;4851927;28;102628;-83
2021/03/19 01:56:02;;;;;;;;;23.50;21.50;;;;;11.63;44.08;98347.25;4769436;28;108825;-93
2021/03/19 01:59:05;;;;;;;;;25.25;20.00;;;;;11.61;43.95;98343.94;4870372;28;102394;-93
2021/03/19 02:02:11;;;;;;;;;26.00;22.25;;;;;11.61;44.00;98337.69;4858732;28;102766;-91
2021/03/19 02:05:15;;;;;;;;;22.00;20.25;;;;;11.60;43.97;98342.25;4747929;28;102928;-92
2021/03/19 02:08:19;;;;;;;;;30.50;22.50;;;;;11.59;43.90;98343.31;4763054;28;104158;-92
2021/03/19 02:11:25;;;;;;;;;25.75;21.00;;;;;11.57;43.88;98339.97;4845834;28;102536;-92
2021/03/19 02:14:30;;;;;;;;;21.00;17.50;;;;;11.55;44.53;98333.94;4855170;28;102376;-92
2021/03/19 02:17:37;;;;;;;;;18.75;17.25;;;;;11.56;43.99;98330.19;4754531;28;102523;-92
2021/03/19 02:20:43;;;;;;;;;21.75;19.50;;;;;11.54;44.43;98343.09;4783809;28;103529;-92
2021/03/19 02:23:50;;;;;;;;;21.50;16.00;;;;;11.53;44.21;98337.91;4651400;28;102486;-92
2021/03/19 02:26:56;;;;;;;;;22.50;19.00;;;;;11.53;44.06;98337.91;4808207;28;103655;-83
2021/03/19 02:30:00;;;;;;;;;25.75;20.75;;;;;11.52;44.31;98326.25;4728229;29;102640;-84
2021/03/19 02:32:27;;;;;;;;;22.75;20.00;;;;;11.51;44.03;98323.75;4613491;28;111010;-83
2021/03/19 02:35:13;;;;;;;;;28.00;22.00;;;;;11.50;44.08;98331.03;4609162;29;102417;-83
2021/03/19 02:37:41;;;;;;;;;21.00;18.25;;;;;11.49;44.25;98321.25;4586503;28;102548;-83
2021/03/19 02:40:12;;;;;;;;;21.50;17.75;;;;;11.49;44.11;98325.84;4699300;29;102317;-83
2021/03/19 02:42:47;;;;;;;;;22.75;20.75;;;;;11.48;43.92;98318.78;4757286;28;104104;-84
2021/03/19 02:45:17;;;;;;;;;23.75;18.75;;;;;11.47;43.93;98323.38;4609572;29;102834;-83
2021/03/19 02:47:48;;;;;;;;;21.50;19.00;;;;;11.46;43.92;98323.56;4608958;28;102933;-83
2021/03/19 02:50:21;;;;;;;;;20.25;18.50;;;;;11.46;44.18;98318.97;4767336;28;102746;-83
2021/03/19 02:52:58;;;;;;;;;18.25;15.75;;;;;11.46;44.02;98318.16;4824035;28;104173;-83
2021/03/19 02:55:27;;;;;;;;;21.50;19.25;;;;;11.45;43.98;98320.03;4800197;28;104403;-83
2021/03/19 02:58:08;;;;;;;;;21.75;21.50;;;;;11.44;43.92;98322.94;4588764;29;102573;-83
2021/03/19 03:00:36;;;;;;;;;22.00;20.00;;;;;11.42;43.96;98320.47;4600166;29;102390;-83
2021/03/19 03:03:09;;;;;;;;;26.25;23.25;;;;;11.43;44.09;98326.72;4549434;29;108028;-83
2021/03/19 03:05:37;;;;;;;;;18.75;18.75;;;;;11.42;43.93;98325.88;4723720;29;104090;-83
2021/03/19 03:08:16;;;;;;;;;24.25;20.00;;;;;11.41;43.78;98323.38;4743267;29;107570;-83
2021/03/19 03:10:55;;;;;;;;;20.50;19.00;;;;;11.40;44.13;98327.94;4641914;29;102356;-83
2021/03/19 03:13:39;;;;;;;;;26.75;20.00;;;;;11.39;44.01;98320.88;4588512;29;107665;-83
2021/03/19 03:16:11;;;;;;;;;23.25;19.00;;;;;11.39;43.98;98325.47;4548841;29;102602;-83
2021/03/19 03:18:48;;;;;;;;;23.75;19.75;;;;;11.38;44.11;98313.81;4759335;29;104354;-84
2021/03/19 03:21:32;;;;;;;;;23.50;20.25;;;;;11.38;43.96;98327.34;4779480;29;103495;-84
2021/03/19 03:24:07;;;;;;;;;19.00;14.50;;;;;11.36;43.93;98329.41;4763608;29;104246;-92
2021/03/19 03:26:37;;;;;;;;;24.00;20.00;;;;;11.36;44.07;98336.72;4720481;29;102297;-91
2021/03/19 03:29:20;;;;;;;;;19.50;16.75;;;;;11.32;43.80;98346.28;4742370;29;102219;-92
2021/03/19 03:31:55;;;;;;;;;22.75;19.00;;;;;11.35;43.95;98351.28;4772700;29;103121;-91
2021/03/19 03:34:32;;;;;;;;;22.25;18.50;;;;;11.35;44.08;98353.97;4743964;29;104116;-91
2021/03/19 03:37:18;;;;;;;;;25.25;21.00;;;;;11.34;43.29;98353.19;4820069;29;107042;-92
2021/03/19 03:39:55;;;;;;;;;24.25;19.75;;;;;11.32;43.83;98362.53;4830494;28;102503;-92
2021/03/19 03:42:25;;;;;;;;;21.75;19.50;;;;;11.32;43.79;98351.72;4846795;28;104396;-92
2021/03/19 03:44:58;;;;;;;;;21.50;20.75;;;;;11.32;43.87;98357.13;4758320;28;103582;-91
2021/03/19 03:47:31;;;;;;;;;22.00;20.00;;;;;11.30;44.01;98349.19;4659137;29;102442;-91
2021/03/19 03:50:22;;;;;;;;;21.25;17.25;;;;;11.29;43.67;98355.69;4777248;29;102320;-91
2021/03/19 03:53:10;;;;;;;;;20.00;8.75;;;;;11.28;43.83;98345.91;4801528;29;102209;-91
2021/03/19 03:55:50;;;;;;;;;22.50;19.25;;;;;11.28;43.99;98345.06;4785823;29;104336;-91
2021/03/19 03:58:29;;;;;;;;;24.75;20.00;;;;;11.26;43.80;98342.56;4660915;29;104242;-90
2021/03/19 04:01:26;;;;;;;;;18.50;16.75;;;;;11.26;43.74;98353.38;4618024;29;102367;-91
2021/03/19 04:03:58;;;;;;;;;21.75;20.25;;;;;11.25;43.82;98351.75;4619663;28;102298;-92
2021/03/19 04:06:27;;;;;;;;;26.50;22.75;;;;;11.25;43.57;98351.75;4639540;29;105031;-91
2021/03/19 04:09:03;;;;;;;;;20.75;19.25;;;;;11.25;43.68;98353.63;4661977;28;102338;-92
2021/03/19 04:12:13;;;;;;;;;23.00;19.50;;;;;11.24;43.67;98352.78;4758605;28;103231;-91
2021/03/19 04:15:52;;;;;;;;;23.50;17.50;;;;;11.26;43.65;98347.97;4747763;29;102332;-84
2021/03/19 04:18:35;;;;;;;;;21.75;17.75;;;;;11.30;43.66;98364.63;4744268;29;103036;-83
2021/03/19 04:21:47;;;;;;;;;18.75;18.00;;;;;11.34;43.79;98355.88;4770679;29;102175;-91
2021/03/19 04:24:30;;;;;;;;;22.00;18.00;;;;;11.37;43.40;98360.88;4692408;29;104229;-91
2021/03/19 04:27:38;;;;;;;;;21.50;19.25;;;;;11.39;43.57;98364.19;4748632;29;104306;-91
2021/03/19 04:30:51;;;;;;;;;20.75;17.75;;;;;11.42;43.65;98358.34;4762697;29;103694;-91
2021/03/19 04:33:54;;;;;;;;;18.50;16.75;;;;;11.42;43.42;98355.66;4721929;29;103469;-92
2021/03/19 04:39:15;;;;;;;;;20.00;17.00;;;;;11.45;43.21;98357.94;5297083;23;102463;-92
2021/03/19 04:42:00;;;;;;;;;15.50;13.00;;;;;11.44;43.76;98350.00;4893514;28;104669;-91
2021/03/19 04:45:07;;;;;;;;;20.25;19.00;;;;;11.45;43.20;98344.38;4883037;28;102383;-91
2021/03/19 04:47:55;;;;;;;;;20.00;17.00;;;;;11.46;43.41;98354.19;4747713;28;102174;-83
2021/03/19 04:51:10;;;;;;;;;24.50;21.25;;;;;11.45;43.52;98354.38;4855070;27;4852162;-83
2021/03/19 04:53:59;;;;;;;;;22.50;19.25;;;;;11.44;43.19;98356.25;5008219;28;102284;-84
2021/03/19 04:57:01;;;;;;;;;24.25;19.25;;;;;11.43;43.66;98360.03;5011063;27;104275;-83
2021/03/19 04:59:42;;;;;;;;;27.25;22.50;;;;;11.46;43.06;98354.19;5010476;27;102145;-84
2021/03/19 05:03:02;;;;;;;;;24.00;19.75;;;;;11.44;43.11;98353.53;5004968;28;102652;-83
2021/03/19 05:09:01;;;;;;;;;24.25;20.75;;;;;11.45;43.34;98363.34;5222527;22;103309;-83
2021/03/19 05:12:13;;;;;;;;;21.00;19.50;;;;;11.43;43.20;98357.31;4736399;28;102550;-83
2021/03/19 05:15:10;;;;;;;;;23.50;21.00;;;;;11.43;43.23;98360.03;4911017;28;104075;-83
2021/03/19 05:18:29;;;;;;;;;23.50;17.00;;;;;11.43;43.20;98364.59;4916680;28;103266;-83
2021/03/19 05:21:15;;;;;;;;;24.00;21.25;;;;;11.43;43.17;98364.59;4916578;28;103699;-83
2021/03/19 05:24:24;;;;;;;;;25.50;21.00;;;;;11.42;43.15;98363.78;4917594;28;102247;-83
2021/03/19 05:27:00;;;;;;;;;26.50;22.00;;;;;11.41;43.13;98372.94;4922776;28;102336;-83
2021/03/19 05:29:47;;;;;;;;;22.50;18.25;;;;;11.41;43.23;98372.94;4905374;28;102271;-83
2021/03/19 05:32:55;;;;;;;;;25.75;21.50;;;;;11.40;43.08;98373.13;4902290;28;104667;-83
2021/03/19 05:36:01;;;;;;;;;21.50;18.25;;;;;11.39;43.27;98364.19;4833909;28;102403;-83
2021/03/19 05:38:48;;;;;;;;;21.25;18.00;;;;;11.38;43.27;98373.38;4616060;28;103418;-83
2021/03/19 05:42:08;;;;;;;;;25.50;19.75;;;;;11.39;43.12;98366.06;4653415;28;103273;-83
2021/03/19 05:45:37;;;;;;;;;22.00;21.00;;;;;11.38;43.17;98373.38;4604017;28;107421;-83
2021/03/19 05:48:07;;;;;;;;;18.50;17.00;;;;;11.39;43.11;98380.41;4816499;28;104033;-83
2021/03/19 05:50:45;;;;;;;;;25.25;20.50;;;;;11.36;43.00;98378.16;4928436;28;102610;-83
2021/03/19 05:56:14;;;;;;;;;22.00;17.50;;;;;11.37;43.24;98387.94;5436530;22;103735;-83
2021/03/19 05:59:09;;;;;;;;;23.50;19.50;;;;;11.37;42.92;98392.50;4865132;27;102337;-83
2021/03/19 06:05:28;;;;;;;;;22.25;18.50;;;;;11.35;43.02;98400.84;4898702;23;104925;-83
2021/03/19 06:08:20;;;;;;;;;21.50;17.50;;;;;11.35;43.00;98402.72;4910182;28;106392;-91
2021/03/19 06:11:33;;;;;;;;;18.25;16.75;;;;;11.35;42.93;98408.13;4898861;28;102174;-90
2021/03/19 06:14:27;;;;;;;;;20.50;18.75;;;;;11.33;43.04;98405.66;4913101;28;102332;-90
2021/03/19 06:25:55;;;;;;;;;24.50;18.75;;;;;11.32;43.09;98395.84;4888043;28;102139;-89
2021/03/19 06:28:39;;;;;;;;;26.25;18.00;;;;;11.30;43.33;98392.50;4857747;28;102396;-89
2021/03/19 06:31:43;;;;;;;;;17.75;17.50;;;;;11.31;43.20;98394.19;4631605;29;109629;-89
2021/03/19 06:34:29;;;;;;;;;18.25;15.25;;;;;11.31;43.06;98393.34;4712782;29;102668;-89
2021/03/19 06:37:17;;;;;;;;;19.75;17.50;;;;;11.30;43.11;98397.94;4580754;29;103241;-89
2021/03/19 06:40:37;;;;;;;;;16.50;14.50;;;;;11.30;43.22;98408.75;4740587;29;102357;-90
2021/03/19 06:44:09;;;;;;;;;17.25;14.25;;;;;11.30;43.05;98414.16;4584811;29;109206;-89
2021/03/19 06:47:13;;;;;;;;;25.00;19.25;;;;;11.26;43.17;98406.72;4735412;29;103292;-83
2021/03/19 06:50:43;;;;;;;;;16.50;14.00;;;;;11.26;43.07;98414.81;4674896;29;102666;-83
2021/03/19 06:53:25;;;;;;;;;20.00;17.00;;;;;11.26;43.27;98409.41;4671424;29;102607;-83
2021/03/19 06:59:26;;;;;;;;;22.25;18.00;;;;;11.26;43.24;98412.13;3117398;26;104230;-83
2021/03/19 07:02:18;;;;;;;;;17.25;17.25;;;;;11.22;43.04;98414.38;4859465;28;102292;-83
2021/03/19 07:06:24;;;;;;;;;24.00;20.25;;;;;11.24;43.19;98415.03;4782575;28;102297;-83
2021/03/19 07:09:30;;;;;;;;;17.75;14.00;;;;;11.24;43.27;98423.16;4745574;29;103671;-83
2021/03/19 07:15:27;;;;;;;;;20.50;15.75;;;;;11.22;43.08;98429.78;5154299;23;102510;-83
2021/03/19 07:18:55;;;;;;;;;22.00;19.00;;;;;11.21;43.25;98425.44;4880216;28;102277;-83
2021/03/19 07:22:36;;;;;;;;;22.25;19.00;;;;;11.20;43.03;98424.59;4911790;28;102485;-90
2021/03/19 07:25:55;;;;;;;;;24.00;18.25;;;;;11.20;43.18;98435.44;4926117;28;103665;-90
2021/03/19 07:28:50;;;;;;;;;25.00;17.00;;;;;11.21;43.28;98430.84;4922713;28;105011;-90
2021/03/19 07:32:00;;;;;;;;;23.00;18.75;;;;;11.20;43.20;98435.44;4933166;28;102313;-90
2021/03/19 07:35:17;;;;;;;;;24.25;19.75;;;;;11.18;43.21;98424.81;4891363;28;103494;-90
2021/03/19 07:38:42;;;;;;;;;26.75;20.50;;;;;11.18;43.08;98432.94;4922513;28;102951;-90
2021/03/19 07:47:02;;;;;;;;;21.25;16.50;;;;;11.21;42.62;98426.28;5644987;22;103077;-83
2021/03/19 07:50:06;;;;;;;;;27.50;23.75;;;;;11.20;43.36;98424.59;4975239;28;104650;-90
2021/03/19 07:52:39;;;;;;;;;25.00;23.25;;;;;11.20;43.09;98435.44;4881329;28;105937;-84
2021/03/19 07:55:29;;;;;;;;;26.75;22.50;;;;;11.21;43.05;98434.41;4793020;28;102620;-84
2021/03/19 07:58:23;;;;;;;;;25.50;23.00;;;;;11.21;43.20;98431.69;4884508;28;109124;-84
2021/03/19 08:00:54;;;;;;;;;32.50;27.00;;;;;11.21;43.04;98431.69;4761892;28;103515;-83
2021/03/19 08:03:27;;;;;;;;;29.25;26.00;;;;;11.22;43.08;98436.03;4952530;28;102540;-83
2021/03/19 08:05:54;;;;;;;;;33.50;23.25;;;;;11.22;43.09;98427.09;4849547;28;102536;-84
2021/03/19 08:08:34;;;;;;;;;29.50;25.50;;;;;11.20;43.29;98427.31;4897192;28;105547;-86
2021/03/19 08:11:21;;;;;;;;;33.25;24.25;;;;;11.22;43.04;98433.34;4687047;28;104155;-86
2021/03/19 08:14:25;;;;;;;;;24.00;19.50;;;;;11.21;42.90;98437.09;4801670;28;102572;-86
2021/03/19 08:17:18;;;;;;;;;26.25;20.50;;;;;11.22;43.12;98436.03;4797864;28;102264;-85
2021/03/19 08:20:15;;;;;;;;;28.25;26.25;;;;;11.21;43.11;98444.38;4845449;28;103856;-86
2021/03/19 08:22:53;;;;;;;;;27.25;26.50;;;;;11.21;42.77;98439.81;4869448;28;102573;-83
2021/03/19 08:25:20;;;;;;;;;28.50;23.75;;;;;11.20;43.09;98435.44;4839459;28;103663;-91
2021/03/19 08:28:14;;;;;;;;;22.50;20.50;;;;;11.21;42.82;98439.81;4945447;28;102500;-89
2021/03/19 08:30:55;;;;;;;;;23.50;21.00;;;;;11.19;43.08;98439.19;4827664;28;104197;-93
2021/03/19 08:33:38;;;;;;;;;23.50;19.25;;;;;11.22;42.90;98436.03;4735308;28;102272;-89
2021/03/19 08:36:23;;;;;;;;;28.25;25.50;;;;;11.19;42.99;98431.91;4766029;28;104195;-86
2021/03/19 08:38:53;;;;;;;;;24.00;20.75;;;;;11.21;42.93;98425.44;4876985;28;102477;-86
2021/03/19 08:41:21;;;;;;;;;24.00;21.00;;;;;11.20;42.94;98424.59;4866599;28;105484;-84
2021/03/19 08:43:56;;;;;;;;;26.00;23.50;;;;;11.19;42.59;98434.59;4900146;28;102722;-81
2021/03/19 08:46:50;;;;;;;;;30.25;26.25;;;;;11.21;42.81;98436.28;4920641;28;103558;-81
2021/03/19 08:49:23;;;;;;;;;26.50;24.75;;;;;11.21;43.09;98430.84;4845144;28;102220;-79
2021/03/19 08:51:50;;;;;;;;;28.00;25.75;;;;;11.20;42.42;98435.44;4922358;28;104012;-81
2021/03/19 08:54:21;;;;;;;;;32.00;26.25;;;;;11.22;42.79;98437.91;4965737;28;102572;-82
2021/03/19 08:57:04;;;;;;;;;21.75;20.00;;;;;11.21;42.94;98428.16;4866612;28;102497;-81
2021/03/19 08:59:33;;;;;;;;;22.00;21.00;;;;;11.20;42.90;98421.91;4939361;28;102363;-81
2021/03/19 09:02:02;;;;;;;;;26.50;21.25;;;;;11.19;43.26;98423.78;4966823;28;104076;-82
2021/03/19 09:04:57;;;;;;;;;25.50;22.50;;;;;11.22;43.06;98422.50;4938849;28;103702;-82
2021/03/19 09:07:37;;;;;;;;;29.75;25.00;;;;;11.23;43.24;98420.63;4958532;28;102250;-82
2021/03/19 09:10:16;;;;;;;;;30.50;22.50;;;;;11.23;42.88;98418.75;4844302;28;104068;-81
2021/03/19 09:12:54;;;;;;;;;24.75;22.00;;;;;11.24;42.87;98425.00;4947996;28;104215;-82
2021/03/19 09:15:24;;;;;;;;;27.75;23.50;;;;;11.24;43.00;98420.44;4956494;28;102434;-82
2021/03/19 09:17:56;;;;;;;;;25.00;22.00;;;;;11.25;42.77;98421.28;4943978;28;103734;-81
2021/03/19 09:20:25;;;;;;;;;20.00;19.50;;;;;11.25;42.85;98418.56;4951020;28;103565;-81
2021/03/19 09:23:10;;;;;;;;;29.25;22.50;;;;;11.25;42.81;98419.41;4958424;28;104208;-81
2021/03/19 09:25:41;;;;;;;;;25.50;21.25;;;;;11.26;42.96;98418.34;4798657;28;102388;-82
2021/03/19 09:28:30;;;;;;;;;27.75;23.00;;;;;11.28;43.11;98418.97;4739643;28;103277;-83
2021/03/19 09:31:29;;;;;;;;;21.25;21.00;;;;;11.30;43.06;98419.56;4696783;28;102470;-83
2021/03/19 09:34:06;;;;;;;;;27.25;23.00;;;;;11.31;43.20;98407.72;4775875;28;108914;-83
2021/03/19 09:37:01;;;;;;;;;25.25;23.25;;;;;11.33;43.03;98412.94;4828912;28;102753;-83
2021/03/19 09:39:47;;;;;;;;;27.25;23.50;;;;;11.32;42.68;98417.50;4845490;28;102650;-83
2021/03/19 09:42:20;;;;;;;;;27.25;21.00;;;;;11.32;43.19;98412.09;4775035;28;102386;-85
2021/03/19 09:45:18;;;;;;;;;28.00;22.75;;;;;11.32;43.37;98412.09;4874544;28;104486;-85
2021/03/19 09:48:09;;;;;;;;;27.00;22.25;;;;;11.33;43.30;98416.47;4895989;28;102474;-85
2021/03/19 09:50:42;;;;;;;;;23.00;20.75;;;;;11.32;43.15;98414.81;4822544;28;102295;-85
2021/03/19 09:53:24;;;;;;;;;29.50;24.50;;;;;11.33;42.94;98418.34;4918152;28;102474;-85
2021/03/19 09:55:55;;;;;;;;;26.75;20.75;;;;;11.33;43.10;98413.75;4919668;28;104032;-84
2021/03/19 09:58:23;;;;;;;;;22.75;19.00;;;;;11.34;43.07;98409.19;4925548;28;102314;-84
2021/03/19 10:00:59;;;;;;;;;25.50;21.50;;;;;11.33;42.99;98413.75;4811899;28;104932;-84
2021/03/19 10:03:26;;;;;;;;;24.50;22.25;;;;;11.33;43.17;98413.75;4910299;28;102406;-83
2021/03/19 10:05:54;;;;;;;;;21.25;19.75;;;;;11.32;43.08;98406.69;4919517;28;105585;-85
2021/03/19 10:08:29;;;;;;;;;22.25;20.50;;;;;11.34;42.96;98406.47;4844794;28;102407;-84
2021/03/19 10:11:07;;;;;;;;;26.00;19.50;;;;;11.34;43.05;98410.03;4881877;28;102485;-85
2021/03/19 10:13:35;;;;;;;;;22.00;21.00;;;;;11.35;42.96;98416.25;4803980;28;102257;-84
2021/03/19 10:16:02;;;;;;;;;24.25;20.00;;;;;11.35;42.96;98411.66;4897830;28;104077;-86
2021/03/19 10:18:35;;;;;;;;;25.75;21.00;;;;;11.37;43.04;98414.16;4871072;28;102923;-85
2021/03/19 10:21:08;;;;;;;;;24.75;20.25;;;;;11.38;43.16;98415.84;4845859;28;104783;-84
2021/03/19 10:23:41;;;;;;;;;23.75;19.00;;;;;11.38;42.88;98411.25;4862904;28;102483;-84
2021/03/19 10:26:24;;;;;;;;;25.00;19.75;;;;;11.39;42.98;98418.31;4773630;28;108450;-84
2021/03/19 10:29:07;;;;;;;;;26.00;23.50;;;;;11.41;42.94;98415.41;4829398;28;102507;-83
2021/03/19 10:31:38;;;;;;;;;24.00;20.50;;;;;11.40;42.96;98420.00;4913932;28;102554;-83
2021/03/19 10:34:10;;;;;;;;;22.50;19.50;;;;;11.40;43.00;98414.56;4796365;28;102727;-83
2021/03/19 10:37:00;;;;;;;;;22.75;19.75;;;;;11.40;42.72;98417.28;4696620;28;104045;-83
2021/03/19 10:39:43;;;;;;;;;22.75;19.75;;;;;11.43;43.00;98426.88;4819612;28;102256;-83
2021/03/19 10:42:28;;;;;;;;;29.00;26.75;;;;;11.42;42.92;98423.34;4858630;28;102716;-84
2021/03/19 10:45:17;;;;;;;;;24.25;19.50;;;;;11.41;43.28;98416.25;4901019;28;102253;-84
2021/03/19 10:47:47;;;;;;;;;20.50;18.50;;;;;11.40;42.86;98414.56;4924702;28;108771;-84
2021/03/19 10:50:35;;;;;;;;;22.00;18.50;;;;;11.43;42.52;98419.59;4788943;28;102455;-84
2021/03/19 10:53:06;;;;;;;;;25.25;22.00;;;;;11.44;42.68;98410.41;4912146;28;102439;-84
2021/03/19 10:55:37;;;;;;;;;26.00;20.75;;;;;11.44;42.79;98410.41;4922488;28;102766;-91
2021/03/19 10:58:30;;;;;;;;;24.75;18.50;;;;;11.46;42.66;98410.19;4922204;28;109851;-91
2021/03/19 11:00:57;;;;;;;;;21.75;18.75;;;;;11.47;42.91;98411.88;4823738;28;102417;-90
2021/03/19 11:03:45;;;;;;;;;18.75;17.50;;;;;11.49;42.82;98407.06;4840981;28;105866;-91
2021/03/19 11:06:26;;;;;;;;;21.50;18.50;;;;;11.49;42.65;98399.78;4918782;28;103206;-91
2021/03/19 11:09:17;;;;;;;;;27.00;20.75;;;;;11.50;42.64;98398.72;4903105;28;103625;-90
2021/03/19 11:11:49;;;;;;;;;22.25;18.50;;;;;11.51;42.77;98394.16;4924655;28;102812;-87
2021/03/19 11:14:18;;;;;;;;;25.75;19.00;;;;;11.50;42.37;98396.03;4929840;28;102572;-88
2021/03/19 11:16:46;;;;;;;;;23.25;20.25;;;;;11.50;42.78;98396.03;4920383;28;102683;-87
2021/03/19 11:19:19;;;;;;;;;25.50;19.25;;;;;11.50;42.81;98393.31;4942652;28;104130;-86
2021/03/19 11:21:57;;;;;;;;;21.25;18.00;;;;;11.52;42.82;98398.53;4939362;28;102440;-85
2021/03/19 11:24:28;;;;;;;;;23.75;18.75;;;;;11.52;42.51;98403.94;4922520;28;102254;-86
2021/03/19 11:27:21;;;;;;;;;19.00;17.50;;;;;11.54;42.81;98397.25;4943735;28;102705;-86
2021/03/19 11:29:48;;;;;;;;;22.00;19.50;;;;;11.55;42.57;98390.81;4937664;28;104070;-86
2021/03/19 11:32:14;;;;;;;;;23.25;17.50;;;;;11.57;42.63;98394.13;4939880;28;102431;-86
2021/03/19 11:34:51;;;;;;;;;21.00;19.50;;;;;11.59;42.56;98370.38;4941024;28;103845;-86
2021/03/19 11:37:18;;;;;;;;;23.50;19.00;;;;;11.63;42.93;98392.44;4943445;28;103569;-86
2021/03/19 11:39:55;;;;;;;;;19.00;15.75;;;;;11.66;42.51;98386.63;4931758;28;104096;-86
2021/03/19 11:42:32;;;;;;;;;18.00;16.75;;;;;11.70;42.30;98382.44;4908706;28;102342;-86
2021/03/19 11:45:07;;;;;;;;;22.50;17.50;;;;;11.72;42.42;98379.50;4912659;28;102705;-86
2021/03/19 11:47:38;;;;;;;;;19.00;16.25;;;;;11.72;42.26;98377.66;4946452;28;105593;-86
2021/03/19 11:50:21;;;;;;;;;25.00;19.00;;;;;11.72;42.46;98379.50;4797556;28;104343;-86
2021/03/19 11:52:53;;;;;;;;;18.00;15.50;;;;;11.74;42.42;98388.28;4943132;28;102205;-86
2021/03/19 11:55:29;;;;;;;;;15.25;14.25;;;;;11.72;42.13;98390.34;4937980;28;102612;-84
2021/03/19 11:57:55;;;;;;;;;19.25;15.75;;;;;11.72;42.29;98391.19;4958607;28;103634;-84
2021/03/19 12:00:25;;;;;;;;;16.00;15.25;;;;;11.71;42.16;98378.66;4965489;28;104080;-84
2021/03/19 12:02:56;;;;;;;;;21.50;17.75;;;;;11.71;42.32;98383.28;4962012;28;102541;-84
2021/03/19 12:05:23;;;;;;;;;21.50;17.50;;;;;11.72;42.21;98390.34;4954941;28;102527;-84
2021/03/19 12:07:50;;;;;;;;;19.50;16.25;;;;;11.74;42.35;98385.59;4889770;28;102219;-84
2021/03/19 12:10:18;;;;;;;;;18.50;16.75;;;;;11.74;42.57;98388.28;4890759;28;104492;-84
2021/03/19 12:12:45;;;;;;;;;19.75;17.50;;;;;11.75;42.60;98387.25;4933167;28;102677;-84
2021/03/19 12:15:15;;;;;;;;;17.00;15.25;;;;;11.76;42.18;98391.59;4821955;28;102326;-84
2021/03/19 12:17:43;;;;;;;;;20.75;19.75;;;;;11.77;42.00;98390.56;4859904;28;102550;-84
2021/03/19 12:20:11;;;;;;;;;19.25;16.25;;;;;11.76;42.17;98391.59;4945091;28;104754;-84
2021/03/19 12:22:39;;;;;;;;;19.75;18.75;;;;;11.74;42.13;98382.88;4961168;28;102652;-84
2021/03/19 12:25:15;;;;;;;;;21.00;17.75;;;;;11.77;42.03;98398.69;4932658;28;106333;-86
2021/03/19 12:27:41;;;;;;;;;18.75;15.75;;;;;11.76;42.02;98395.16;4962503;28;102420;-86
2021/03/19 12:30:09;;;;;;;;;20.50;16.00;;;;;11.75;41.63;98400.78;4936757;28;104142;-86
2021/03/19 12:32:35;;;;;;;;;15.50;15.50;;;;;11.74;41.89;98405.38;4958714;28;102755;-86
2021/03/19 12:35:04;;;;;;;;;12.50;10.75;;;;;11.74;41.89;98402.66;4947823;28;103298;-86
2021/03/19 12:37:31;;;;;;;;;14.75;11.75;;;;;11.74;42.13;98408.09;4959221;28;102245;-86
2021/03/19 12:39:57;;;;;;;;;11.50;9.75;;;;;11.72;41.79;98404.75;4951126;28;104513;-86
2021/03/19 12:42:24;;;;;;;;;16.25;13.75;;;;;11.73;41.96;98397.44;4916564;28;104691;-87
2021/03/19 12:44:51;;;;;;;;;16.50;14.00;;;;;11.72;41.78;98390.34;4954324;28;103104;-86
2021/03/19 12:47:18;;;;;;;;;15.75;14.00;;;;;11.72;41.79;98384.91;4959284;28;103168;-86
2021/03/19 12:49:45;;;;;;;;;17.00;14.25;;;;;11.73;41.87;98381.19;4957068;28;105429;-86
2021/03/19 12:52:12;;;;;;;;;14.50;12.75;;;;;11.75;41.45;98388.09;4835164;28;102761;-87